createdAt,value
2023-02-11T00:00:27.881Z,77.37
2023-02-11T00:03:29.679Z,74.90
2023-02-11T00:06:33.176Z,78.90
2023-02-11T00:09:34.902Z,76.27
2023-02-11T00:12:37.444Z,79.53
2023-02-11T00:15:39.173Z,76.33
2023-02-11T00:18:40.919Z,70.10
2023-02-11T00:21:42.713Z,71.67
2023-02-11T00:24:45.110Z,67.10
2023-02-11T00:27:46.818Z,71.03
2023-02-11T00:30:55.448Z,70.97
2023-02-11T00:33:57.276Z,70.23
2023-02-11T00:36:59.300Z,70.27
2023-02-11T00:40:01.026Z,70.70
2023-02-11T00:43:02.799Z,64.50
2023-02-11T00:46:04.788Z,72.00
2023-02-11T00:49:06.613Z,69.80
2023-02-11T00:52:08.340Z,60.87
2023-02-11T00:55:10.133Z,70.57
2023-02-11T00:58:11.883Z,69.67
2023-02-11T01:01:14.116Z,70.90
2023-02-11T01:04:15.886Z,67.00
2023-02-11T01:07:17.627Z,63.00
2023-02-11T01:10:19.483Z,67.93
2023-02-11T01:13:21.572Z,67.87
2023-02-11T01:16:23.457Z,60.50
2023-02-11T01:19:25.263Z,69.57
2023-02-11T01:22:27.012Z,71.73
2023-02-11T01:25:28.816Z,69.60
2023-02-11T01:28:31.175Z,69.60
2023-02-11T01:31:33.079Z,71.20
2023-02-11T01:34:34.956Z,71.10
2023-02-11T01:37:37.069Z,71.13
2023-02-11T01:40:38.815Z,66.87
2023-02-11T01:43:47.370Z,69.03
2023-02-11T01:46:49.312Z,73.50
2023-02-11T01:49:56.832Z,71.07
2023-02-11T01:53:18.634Z,71.17
2023-02-11T01:56:39.466Z,77.63
2023-02-11T01:59:56.721Z,71.07
2023-02-11T02:07:05.371Z,70.97
2023-02-11T02:10:16.621Z,66.27
2023-02-11T02:13:18.403Z,72.63
2023-02-11T02:16:22.239Z,71.40
2023-02-11T02:19:39.431Z,75.67
2023-02-11T02:23:00.981Z,70.73
2023-02-11T02:26:19.928Z,71.60
2023-02-11T02:29:36.715Z,74.17
2023-02-11T02:33:23.119Z,76.00
2023-02-11T02:36:37.052Z,66.10
2023-02-11T02:39:39.189Z,70.10
2023-02-11T02:42:42.001Z,69.63
2023-02-11T02:45:43.725Z,68.43
2023-02-11T02:48:46.659Z,68.97
2023-02-11T02:52:08.271Z,74.23
2023-02-11T02:55:26.357Z,72.83
2023-02-11T02:59:20.845Z,69.27
2023-02-11T03:02:34.159Z,65.77
2023-02-11T03:05:53.507Z,69.47
2023-02-11T03:09:10.355Z,72.03
2023-02-11T03:12:14.583Z,72.73
2023-02-11T03:15:18.311Z,71.37
2023-02-11T03:18:26.167Z,67.53
2023-02-11T03:21:31.094Z,70.93
2023-02-11T03:24:38.046Z,72.13
2023-02-11T03:27:52.848Z,71.13
2023-02-11T03:31:23.133Z,76.83
2023-02-11T03:34:47.607Z,65.00
2023-02-11T03:37:55.491Z,68.20
2023-02-11T03:40:59.759Z,69.10
2023-02-11T03:44:02.737Z,65.57
2023-02-11T03:47:07.970Z,73.77
2023-02-11T03:50:13.833Z,79.27
2023-02-11T03:53:17.420Z,67.37
2023-02-11T03:56:23.265Z,71.97
2023-02-11T03:59:25.718Z,74.33
2023-02-11T04:02:31.550Z,73.40
2023-02-11T04:05:33.606Z,74.47
2023-02-11T04:08:35.618Z,78.87
2023-02-11T04:11:37.561Z,76.80
2023-02-11T04:14:39.374Z,75.77
2023-02-11T04:17:41.104Z,75.87
2023-02-11T04:20:43.034Z,73.77
2023-02-11T04:23:44.804Z,75.90
2023-02-11T04:26:46.624Z,73.73
2023-02-11T04:29:48.574Z,71.90
2023-02-11T04:32:50.623Z,71.33
2023-02-11T04:35:52.635Z,70.20
2023-02-11T04:38:54.499Z,74.07
2023-02-11T04:41:56.296Z,65.80
2023-02-11T04:44:58.044Z,73.87
2023-02-11T04:48:01.269Z,71.57
2023-02-11T04:51:03.212Z,72.17
2023-02-11T04:54:05.095Z,71.97
2023-02-11T04:57:06.819Z,77.83
2023-02-11T05:00:10.047Z,70.00
2023-02-11T05:03:12.321Z,68.00
2023-02-11T05:06:14.258Z,73.57
2023-02-11T05:09:16.747Z,70.10
2023-02-11T05:12:18.525Z,72.87
2023-02-11T05:15:20.367Z,70.80
2023-02-11T05:18:22.142Z,73.63
2023-02-11T05:21:24.073Z,68.73
2023-02-11T05:24:25.897Z,74.27
2023-02-11T05:27:27.669Z,72.20
2023-02-11T05:30:29.831Z,71.77
2023-02-11T05:33:31.730Z,74.93
2023-02-11T05:36:33.626Z,67.03
2023-02-11T05:39:35.323Z,66.93
2023-02-11T05:42:37.084Z,69.67
2023-02-11T05:45:38.794Z,74.80
2023-02-11T05:48:40.528Z,73.40
2023-02-11T05:51:42.263Z,64.60
2023-02-11T05:54:44.017Z,66.23
2023-02-11T05:57:45.730Z,71.73
2023-02-11T06:00:47.420Z,69.00
2023-02-11T06:03:51.553Z,91.43
2023-02-11T06:06:53.368Z,70.60
2023-02-11T06:09:55.032Z,76.13
2023-02-11T06:12:56.820Z,74.47
2023-02-11T06:15:59.848Z,67.43
2023-02-11T06:19:01.690Z,61.90
2023-02-11T06:22:03.900Z,65.67
2023-02-11T06:25:06.346Z,66.30
2023-02-11T06:28:08.615Z,76.13
2023-02-11T06:31:11.983Z,74.80
2023-02-11T06:34:13.936Z,66.67
2023-02-11T06:37:15.747Z,71.93
2023-02-11T06:40:17.523Z,68.37
2023-02-11T06:43:19.202Z,69.87
2023-02-11T06:46:24.239Z,68.53
2023-02-11T06:49:26.082Z,77.67
2023-02-11T06:52:27.771Z,85.27
2023-02-11T06:55:29.424Z,70.77
2023-02-11T06:58:31.261Z,73.53
2023-02-11T07:01:32.999Z,75.57
2023-02-11T07:04:34.787Z,80.53
2023-02-11T07:07:37.323Z,76.47
2023-02-11T07:10:39.689Z,75.57
2023-02-11T07:13:41.650Z,75.20
2023-02-11T07:16:45.521Z,75.93
2023-02-11T07:19:47.295Z,77.57
2023-02-11T07:22:49.124Z,81.33
2023-02-11T07:25:51.051Z,76.40
2023-02-11T07:28:53.489Z,69.23
2023-02-11T07:31:55.332Z,75.40
2023-02-11T07:34:57.720Z,74.33
2023-02-11T07:38:00.698Z,67.07
2023-02-11T07:41:05.273Z,70.27
2023-02-11T07:44:10.120Z,64.83
2023-02-11T07:47:11.831Z,68.57
2023-02-11T07:50:13.627Z,73.20
2023-02-11T07:53:15.486Z,71.73
2023-02-11T07:56:19.361Z,69.03
2023-02-11T07:59:21.256Z,63.33
2023-02-11T08:02:23.060Z,67.73
2023-02-11T08:05:24.902Z,68.47
2023-02-11T08:08:27.730Z,70.70
2023-02-11T08:11:29.700Z,63.47
2023-02-11T08:14:32.754Z,67.80
2023-02-11T08:17:36.062Z,65.63
2023-02-11T08:20:37.773Z,63.70
2023-02-11T08:23:41.144Z,66.03
2023-02-11T08:26:43.523Z,67.57
2023-02-11T08:29:45.264Z,69.10
2023-02-11T08:32:47.442Z,63.47
2023-02-11T08:35:49.151Z,64.47
2023-02-11T08:38:51.422Z,65.53
2023-02-11T08:41:56.472Z,61.57
2023-02-11T08:44:58.206Z,64.83
2023-02-11T08:48:00.543Z,63.97
2023-02-11T08:51:09.940Z,68.97
2023-02-11T08:54:12.706Z,61.40
2023-02-11T08:57:14.437Z,62.60
2023-02-11T09:00:16.871Z,58.63
2023-02-11T09:03:18.738Z,56.57
2023-02-11T09:06:22.352Z,61.13
2023-02-11T09:09:24.375Z,63.83
2023-02-11T09:12:26.263Z,67.83
2023-02-11T09:15:28.182Z,62.57
2023-02-11T09:18:30.297Z,59.37
2023-02-11T09:21:32.358Z,55.77
2023-02-11T09:24:34.253Z,57.70
2023-02-11T09:27:36.064Z,56.23
2023-02-11T09:30:38.651Z,57.60
2023-02-11T09:33:47.651Z,61.80
2023-02-11T09:36:49.399Z,56.67
2023-02-11T09:39:51.424Z,54.53
2023-02-11T09:43:11.737Z,54.73
2023-02-11T09:46:16.152Z,56.63
2023-02-11T09:49:23.192Z,58.83
2023-02-11T09:52:49.095Z,68.80
2023-02-11T09:55:56.682Z,75.37
2023-02-11T09:58:58.421Z,112.33
2023-02-11T10:02:17.128Z,73.73
2023-02-11T10:05:53.855Z,68.10
2023-02-11T10:09:21.897Z,65.80
2023-02-11T10:12:38.348Z,64.57
2023-02-11T10:15:51.979Z,63.33
2023-02-11T10:19:11.365Z,60.67
2023-02-11T10:22:45.212Z,61.17
2023-02-11T10:25:50.727Z,59.50
2023-02-11T10:28:55.913Z,56.67
2023-02-11T10:31:58.861Z,53.87
2023-02-11T10:35:04.289Z,55.70
2023-02-11T10:38:06.009Z,61.13
2023-02-11T10:41:16.165Z,56.47
2023-02-11T10:44:40.126Z,60.50
2023-02-11T10:47:42.737Z,58.77
2023-02-11T10:50:44.895Z,53.93
2023-02-11T10:53:49.394Z,60.77
2023-02-11T10:56:59.502Z,60.90
2023-02-11T11:00:07.718Z,58.60
2023-02-11T11:03:37.854Z,58.27
2023-02-11T11:06:39.712Z,64.23
2023-02-11T11:09:49.497Z,63.17
2023-02-11T11:12:51.327Z,67.80
2023-02-11T11:16:12.029Z,68.33
2023-02-11T11:19:22.693Z,68.27
2023-02-11T11:22:24.493Z,64.53
2023-02-11T11:25:29.559Z,63.37
2023-02-11T11:28:38.766Z,69.30
2023-02-11T11:31:57.886Z,64.33
2023-02-11T11:35:03.549Z,64.33
2023-02-11T11:38:05.766Z,68.73
2023-02-11T11:41:24.514Z,73.63
2023-02-11T11:44:26.258Z,62.77
2023-02-11T11:47:42.960Z,63.17
2023-02-11T11:50:48.144Z,61.00
2023-02-11T11:54:13.119Z,73.47
2023-02-11T11:57:22.033Z,61.80
2023-02-11T12:00:37.723Z,62.80
2023-02-11T12:04:02.442Z,61.47
2023-02-11T12:07:25.947Z,60.23
2023-02-11T12:11:06.293Z,59.60
2023-02-11T12:14:22.869Z,72.17
2023-02-11T12:17:52.314Z,66.27
2023-02-11T12:20:54.048Z,66.93
2023-02-11T12:24:09.693Z,67.13
2023-02-11T12:27:42.331Z,67.67
2023-02-11T12:31:06.443Z,65.50
2023-02-11T12:34:26.210Z,68.13
2023-02-11T12:37:38.438Z,68.47
2023-02-11T12:41:10.380Z,70.57
2023-02-11T12:44:29.905Z,68.73
2023-02-11T12:48:07.430Z,62.93
2023-02-11T12:51:11.939Z,69.10
2023-02-11T12:54:27.295Z,66.40
2023-02-11T12:57:33.341Z,70.03
2023-02-11T13:00:49.718Z,68.57
2023-02-11T13:04:06.421Z,65.77
2023-02-11T13:07:19.184Z,66.17
2023-02-11T13:10:25.083Z,62.17
2023-02-11T13:13:34.455Z,67.67
2023-02-11T13:16:43.840Z,58.93
2023-02-11T13:19:52.979Z,69.53
2023-02-11T13:23:28.126Z,66.17
2023-02-11T13:26:57.798Z,70.37
2023-02-11T13:30:24.710Z,69.67
2023-02-11T13:33:39.565Z,62.83
2023-02-11T13:36:41.416Z,67.17
2023-02-11T13:39:43.150Z,68.50
2023-02-11T13:42:51.446Z,68.67
2023-02-11T13:46:06.937Z,67.27
2023-02-11T13:49:25.987Z,64.90
2023-02-11T13:52:32.120Z,68.80
2023-02-11T13:55:34.948Z,68.83
2023-02-11T13:58:46.689Z,64.33
2023-02-11T14:02:17.546Z,65.17
2023-02-11T14:05:42.931Z,68.17
2023-02-11T14:09:09.162Z,72.27
2023-02-11T14:12:31.575Z,68.47
2023-02-11T14:15:45.200Z,60.57
2023-02-11T14:18:50.030Z,61.20
2023-02-11T14:21:51.777Z,58.60
2023-02-11T14:24:56.961Z,63.80
2023-02-11T14:28:19.040Z,65.80
2023-02-11T14:31:37.252Z,57.40
2023-02-11T14:35:26.899Z,62.77
2023-02-11T14:39:06.168Z,65.00
2023-02-11T14:42:20.790Z,69.13
2023-02-11T14:45:28.799Z,62.57
2023-02-11T14:48:35.145Z,59.13
2023-02-11T14:51:40.523Z,71.47
2023-02-11T14:54:44.047Z,65.40
2023-02-11T14:57:45.895Z,58.23
2023-02-11T15:01:06.441Z,61.77
2023-02-11T15:04:27.768Z,63.50
2023-02-11T15:07:29.556Z,76.77
2023-02-11T15:10:44.773Z,71.20
2023-02-11T15:13:49.685Z,66.80
2023-02-11T15:16:53.734Z,67.43
2023-02-11T15:19:59.162Z,69.03
2023-02-11T15:23:05.700Z,68.53
2023-02-11T15:26:15.252Z,65.63
2023-02-11T15:29:17.859Z,64.53
2023-02-11T15:32:25.641Z,68.23
2023-02-11T15:35:37.806Z,64.10
2023-02-11T15:38:40.964Z,61.77
2023-02-11T15:41:44.386Z,60.10
2023-02-11T15:44:50.579Z,62.60
2023-02-11T15:48:18.692Z,69.40
2023-02-11T15:51:31.620Z,61.87
2023-02-11T15:54:33.497Z,66.10
2023-02-11T15:57:35.362Z,63.83
2023-02-11T16:00:46.169Z,69.43
2023-02-11T16:03:51.363Z,100.50
2023-02-11T16:06:54.673Z,82.63
2023-02-11T16:09:58.557Z,66.07
2023-02-11T16:13:03.151Z,77.07
2023-02-11T16:16:17.187Z,70.80
2023-02-11T16:19:22.976Z,78.03
2023-02-11T16:22:29.970Z,75.53
2023-02-11T16:25:34.395Z,75.10
2023-02-11T16:28:37.553Z,65.47
2023-02-11T16:31:45.372Z,72.50
2023-02-11T16:34:47.597Z,75.93
2023-02-11T16:37:49.341Z,68.27
2023-02-11T16:40:51.555Z,80.87
2023-02-11T16:43:57.833Z,76.97
2023-02-11T16:47:01.411Z,74.87
2023-02-11T16:50:04.572Z,73.57
2023-02-11T16:53:06.471Z,72.30
2023-02-11T16:56:14.148Z,82.03
2023-02-11T16:59:16.080Z,77.27
2023-02-11T17:02:25.799Z,79.50
2023-02-11T17:05:27.589Z,71.60
2023-02-11T17:08:29.976Z,67.67
2023-02-11T17:11:31.744Z,69.43
2023-02-11T17:14:33.436Z,76.50
2023-02-11T17:17:35.256Z,67.40
2023-02-11T17:20:36.997Z,65.37
2023-02-11T17:23:39.096Z,77.47
2023-02-11T17:26:41.688Z,90.30
2023-02-11T17:29:43.684Z,77.50
2023-02-11T17:32:47.257Z,75.07
2023-02-11T17:35:49.174Z,85.40
2023-02-11T17:38:51.756Z,77.93
2023-02-11T17:41:53.486Z,77.03
2023-02-11T17:44:55.221Z,84.17
2023-02-11T17:47:56.932Z,68.73
2023-02-11T17:50:59.033Z,82.87
2023-02-11T17:54:03.297Z,69.20
2023-02-11T17:57:05.071Z,74.50
2023-02-11T18:00:08.282Z,82.27
2023-02-11T18:03:09.989Z,74.53
2023-02-11T18:06:12.308Z,91.47
2023-02-11T18:09:14.205Z,88.57
2023-02-11T18:12:17.895Z,83.43
2023-02-11T18:15:19.813Z,91.33
2023-02-11T18:18:21.560Z,83.70
2023-02-11T18:21:24.145Z,98.30
2023-02-11T18:24:27.225Z,101.27
2023-02-11T18:27:29.143Z,82.03
2023-02-11T18:30:31.298Z,72.70
2023-02-11T18:33:33.511Z,77.93
2023-02-11T18:36:35.652Z,82.97
2023-02-11T18:39:37.430Z,79.50
2023-02-11T18:42:39.495Z,105.67
2023-02-11T18:45:45.271Z,88.40
2023-02-11T18:48:47.010Z,94.50
2023-02-11T18:51:48.797Z,101.63
2023-02-11T18:54:52.255Z,89.73
2023-02-11T18:57:54.265Z,89.20
2023-02-11T19:00:56.025Z,72.93
2023-02-11T19:03:59.951Z,110.30
2023-02-11T19:07:03.685Z,96.80
2023-02-11T19:10:06.191Z,92.97
2023-02-11T19:13:08.302Z,91.57
2023-02-11T19:16:11.570Z,113.33
2023-02-11T19:19:14.253Z,104.90
2023-02-11T19:22:17.098Z,93.97
2023-02-11T19:25:19.377Z,78.37
2023-02-11T19:28:21.232Z,90.07
2023-02-11T19:31:23.080Z,90.90
2023-02-11T19:34:25.092Z,81.77
2023-02-11T19:37:27.016Z,101.73
2023-02-11T19:40:28.782Z,109.10
2023-02-11T19:43:30.532Z,116.20
2023-02-11T19:46:35.675Z,125.33
2023-02-11T19:49:37.472Z,121.30
2023-02-11T19:52:40.769Z,129.40
2023-02-11T19:55:42.663Z,110.07
2023-02-11T19:58:44.450Z,108.73
2023-02-11T20:01:48.928Z,105.47
2023-02-11T20:04:50.696Z,94.03
2023-02-11T20:07:52.435Z,95.70
2023-02-11T20:10:54.299Z,98.63
2023-02-11T20:13:57.086Z,102.87
2023-02-11T20:16:58.871Z,93.20
2023-02-11T20:20:00.633Z,89.97
2023-02-11T20:23:02.383Z,80.17
2023-02-11T20:26:32.180Z,90.73
2023-02-11T20:29:34.325Z,98.70
2023-02-11T20:32:38.429Z,101.37
2023-02-11T20:35:40.134Z,105.73
2023-02-11T20:38:42.143Z,97.17
2023-02-11T20:41:45.894Z,104.33
2023-02-11T20:44:48.057Z,107.70
2023-02-11T20:47:49.902Z,108.07
2023-02-11T20:50:51.649Z,102.27
2023-02-11T20:53:54.351Z,106.63
2023-02-11T20:56:58.195Z,93.33
2023-02-11T21:00:00.204Z,107.73
2023-02-11T21:03:02.116Z,99.87
2023-02-11T21:06:04.053Z,108.80
2023-02-11T21:09:07.642Z,110.33
2023-02-11T21:12:09.451Z,104.60
2023-02-11T21:15:12.953Z,105.03
2023-02-11T21:18:14.719Z,101.20
2023-02-11T21:21:17.851Z,95.17
2023-02-11T21:24:19.545Z,89.23
2023-02-11T21:27:21.297Z,97.43
2023-02-11T21:30:22.966Z,108.27
2023-02-11T21:33:27.099Z,103.73
2023-02-11T21:36:29.764Z,85.80
2023-02-11T21:39:31.485Z,102.93
2023-02-11T21:42:33.265Z,107.17
2023-02-11T21:45:34.974Z,115.93
2023-02-11T21:48:37.100Z,110.50
2023-02-11T21:51:39.481Z,151.33
2023-02-11T21:54:41.189Z,158.20
2023-02-11T21:57:43.452Z,133.53
2023-02-11T22:00:45.209Z,158.53
2023-02-11T22:03:47.597Z,123.73
2023-02-11T22:06:49.440Z,131.80
2023-02-11T22:09:52.200Z,131.47
2023-02-11T22:12:53.895Z,159.20
2023-02-11T22:16:04.558Z,139.77
2023-02-11T22:19:07.573Z,121.13
2023-02-11T22:22:09.521Z,106.70
2023-02-11T22:25:11.242Z,100.73
2023-02-11T22:28:13.054Z,103.33
2023-02-11T22:31:22.314Z,99.67
2023-02-11T22:34:24.086Z,103.67
2023-02-11T22:37:25.831Z,104.70
2023-02-11T22:40:27.626Z,93.00
2023-02-11T22:43:29.370Z,102.97
2023-02-11T22:46:31.129Z,100.73
2023-02-11T22:49:33.326Z,99.17
2023-02-11T22:52:36.307Z,94.23
2023-02-11T22:55:39.738Z,99.50
2023-02-11T22:58:41.477Z,89.93
2023-02-11T23:01:44.261Z,109.07
2023-02-11T23:04:48.369Z,112.13
2023-02-11T23:07:51.338Z,106.43
2023-02-11T23:10:53.607Z,96.60
2023-02-11T23:13:55.958Z,98.80
2023-02-11T23:16:57.700Z,97.43
2023-02-11T23:19:59.517Z,95.17
2023-02-11T23:23:01.296Z,103.23
2023-02-11T23:26:03.844Z,92.53
2023-02-11T23:29:05.801Z,101.67
2023-02-11T23:32:07.610Z,105.17
2023-02-11T23:35:09.339Z,108.30
2023-02-11T23:38:11.099Z,99.57
2023-02-11T23:41:13.549Z,100.47
2023-02-11T23:44:15.286Z,100.97
2023-02-11T23:47:16.967Z,107.27
2023-02-11T23:50:18.903Z,105.27
2023-02-11T23:53:20.662Z,120.10
2023-02-11T23:56:26.874Z,118.17
2023-02-11T23:59:28.582Z,122.83
